Time;durP1;ratioP1;P1;durP2;ratioP2;P2;SDS_P1;SDS_P2;PMS_P1;PMS_P2;Temp;Humidity;BMP_temperature;BMP_pressure;BME280_temperature;BME280_humidity;BME280_pressure;Samples;Min_cycle;Max_cycle;Signal;HPM_P1;HPM_P2
2022/03/25 00:02:16;;;;;;;24.90;13.10;;;11.70;46.70;;;;;;5049947;28;20391;-80
2022/03/25 00:04:42;;;;;;;27.63;13.80;;;11.70;46.80;;;;;;5046713;28;20017;-78
2022/03/25 00:07:08;;;;;;;34.28;14.50;;;11.70;46.90;;;;;;5029545;28;20427;-78
2022/03/25 00:09:34;;;;;;;32.10;14.57;;;11.60;47.60;;;;;;5046398;28;20168;-78
2022/03/25 00:12:00;;;;;;;29.73;14.30;;;11.60;47.00;;;;;;5046998;28;20029;-77
2022/03/25 00:14:26;;;;;;;25.98;14.15;;;11.50;47.10;;;;;;5029719;28;20021;-78
2022/03/25 00:16:52;;;;;;;31.52;15.10;;;11.50;47.10;;;;;;5050991;28;20009;-77
2022/03/25 00:19:18;;;;;;;26.13;14.43;;;11.50;47.10;;;;;;5051078;28;20028;-77
2022/03/25 00:21:43;;;;;;;25.08;13.77;;;11.50;47.10;;;;;;5053153;28;20025;-77
2022/03/25 00:24:09;;;;;;;27.45;14.30;;;11.50;47.30;;;;;;5036681;28;20468;-78
2022/03/25 00:26:35;;;;;;;26.80;13.95;;;11.40;47.30;;;;;;5054694;28;20087;-78
2022/03/25 00:29:01;;;;;;;29.20;14.23;;;11.40;47.30;;;;;;5054606;28;20035;-78
2022/03/25 00:31:27;;;;;;;24.90;14.10;;;11.40;47.40;;;;;;5054493;28;20033;-78
2022/03/25 00:33:53;;;;;;;28.25;14.35;;;11.40;47.40;;;;;;5054311;28;20364;-78
2022/03/25 00:36:21;;;;;;;27.08;13.73;;;11.40;47.40;;;;;;5054721;28;20495;-77
2022/03/25 00:38:47;;;;;;;26.88;13.95;;;11.30;47.30;;;;;;5036939;28;20423;-79
2022/03/25 00:41:15;;;;;;;26.45;13.63;;;11.30;47.30;;;;;;5048169;28;20060;-77
2022/03/25 00:43:42;;;;;;;26.75;13.82;;;11.30;47.10;;;;;;5050283;28;20112;-78
2022/03/25 00:46:08;;;;;;;25.10;13.82;;;11.40;47.10;;;;;;5049629;28;20028;-77
2022/03/25 00:48:33;;;;;;;28.17;13.30;;;11.40;47.20;;;;;;5050793;28;20384;-78
2022/03/25 00:50:59;;;;;;;23.88;12.48;;;11.40;47.20;;;;;;5049534;28;20480;-78
2022/03/25 00:53:25;;;;;;;26.13;13.63;;;11.40;47.20;;;;;;5049576;28;20029;-78
2022/03/25 00:55:52;;;;;;;23.48;13.20;;;11.30;47.10;;;;;;5049725;28;20610;-78
2022/03/25 00:58:18;;;;;;;24.13;13.48;;;11.30;47.10;;;;;;5069532;28;20506;-78
2022/03/25 01:00:45;;;;;;;22.92;13.52;;;11.30;47.20;;;;;;5065584;28;20021;-77
2022/03/25 01:03:11;;;;;;;25.30;13.35;;;11.30;47.20;;;;;;5031501;28;20048;-78
2022/03/25 01:05:37;;;;;;;31.60;14.02;;;11.30;47.10;;;;;;5049134;28;20021;-78
2022/03/25 01:08:04;;;;;;;24.75;13.40;;;11.30;47.20;;;;;;5052783;28;20377;-78
2022/03/25 01:10:31;;;;;;;24.33;13.00;;;11.30;47.20;;;;;;5048917;28;20025;-78
2022/03/25 01:12:57;;;;;;;25.52;13.45;;;11.30;47.20;;;;;;5051202;28;20031;-78
2022/03/25 01:15:23;;;;;;;29.23;13.35;;;11.30;47.40;;;;;;5052286;28;20373;-77
2022/03/25 01:17:49;;;;;;;22.73;13.98;;;11.30;47.40;;;;;;5070011;28;20020;-79
2022/03/25 01:20:17;;;;;;;28.15;14.77;;;11.30;47.50;;;;;;5055946;28;20499;-79
2022/03/25 01:22:43;;;;;;;25.45;13.63;;;11.20;47.60;;;;;;5045890;28;20039;-79
2022/03/25 01:25:09;;;;;;;29.40;14.63;;;11.30;47.60;;;;;;5051348;28;20476;-79
2022/03/25 01:27:36;;;;;;;25.52;14.13;;;11.20;47.60;;;;;;5069218;28;20020;-79
2022/03/25 01:30:03;;;;;;;25.65;12.98;;;11.20;47.60;;;;;;5069789;28;20519;-79
2022/03/25 01:32:28;;;;;;;27.38;15.63;;;11.20;47.60;;;;;;5031507;28;20127;-79
2022/03/25 01:34:54;;;;;;;30.48;15.35;;;11.20;47.80;;;;;;5049122;28;20096;-79
2022/03/25 01:37:20;;;;;;;25.25;14.10;;;11.10;47.80;;;;;;5049371;28;20024;-79
2022/03/25 01:39:46;;;;;;;27.77;14.00;;;11.10;47.90;;;;;;5050617;28;20048;-79
2022/03/25 01:42:12;;;;;;;29.63;14.77;;;11.10;48.10;;;;;;5071268;28;20031;-79
2022/03/25 01:44:37;;;;;;;27.13;14.98;;;11.10;48.10;;;;;;5073557;28;20029;-79
2022/03/25 01:47:08;;;;;;;28.67;14.43;;;11.00;48.20;;;;;;5073155;28;20024;-79
2022/03/25 01:49:34;;;;;;;23.77;14.45;;;11.00;48.40;;;;;;5073229;28;20030;-80
2022/03/25 01:52:02;;;;;;;25.15;13.32;;;11.00;48.40;;;;;;5054985;28;20040;-79
2022/03/25 01:54:30;;;;;;;31.77;15.30;;;11.00;48.40;;;;;;5073132;28;20028;-80
2022/03/25 01:57:06;;;;;;;28.35;15.23;;;11.00;48.40;;;;;;5073063;28;20021;-79
2022/03/25 01:59:33;;;;;;;31.42;15.38;;;11.00;48.40;;;;;;5072854;28;20058;-79
2022/03/25 02:02:01;;;;;;;28.52;15.23;;;10.90;48.40;;;;;;5058447;28;20056;-79
2022/03/25 02:04:26;;;;;;;27.73;14.32;;;10.90;48.30;;;;;;5052835;28;20489;-79
2022/03/25 02:06:53;;;;;;;30.30;15.02;;;10.90;48.40;;;;;;5052762;28;20096;-79
2022/03/25 02:09:19;;;;;;;28.73;14.50;;;10.90;48.50;;;;;;5052056;28;20152;-79
2022/03/25 02:11:45;;;;;;;27.13;13.95;;;10.90;48.60;;;;;;5052780;28;20021;-79
2022/03/25 02:14:11;;;;;;;31.55;14.38;;;10.90;48.60;;;;;;5052613;28;20021;-79
2022/03/25 02:16:42;;;;;;;26.98;14.77;;;10.90;48.60;;;;;;5052752;28;20021;-79
2022/03/25 02:19:11;;;;;;;29.63;14.95;;;10.90;48.60;;;;;;5052683;28;20025;-79
2022/03/25 02:21:38;;;;;;;31.33;14.75;;;10.80;48.60;;;;;;5052772;28;20029;-79
2022/03/25 02:24:06;;;;;;;23.42;14.02;;;10.80;48.60;;;;;;5034535;28;20031;-80
2022/03/25 02:26:33;;;;;;;32.63;15.57;;;10.80;48.50;;;;;;5052741;28;20607;-79
2022/03/25 02:29:03;;;;;;;33.88;15.60;;;10.90;48.30;;;;;;5052419;28;20033;-79
2022/03/25 02:31:28;;;;;;;30.67;15.27;;;10.90;48.30;;;;;;5052139;28;20115;-79
2022/03/25 02:33:58;;;;;;;31.90;15.85;;;10.90;48.30;;;;;;5052255;28;20453;-79
2022/03/25 02:36:23;;;;;;;27.35;14.82;;;10.80;49.00;;;;;;5052168;28;20127;-80
2022/03/25 02:38:49;;;;;;;28.52;14.48;;;10.90;48.40;;;;;;5052218;28;20532;-79
2022/03/25 02:41:15;;;;;;;22.17;13.05;;;10.90;48.50;;;;;;5038009;28;20416;-79
2022/03/25 02:43:40;;;;;;;26.45;14.85;;;10.90;48.30;;;;;;5031591;28;20025;-79
2022/03/25 02:46:06;;;;;;;26.45;12.95;;;10.90;48.20;;;;;;5032149;28;20036;-80
2022/03/25 02:48:32;;;;;;;27.67;14.20;;;10.90;48.20;;;;;;5032298;28;20022;-80
2022/03/25 02:50:58;;;;;;;28.23;14.80;;;10.90;48.20;;;;;;5032048;28;20025;-80
2022/03/25 02:53:24;;;;;;;26.27;12.95;;;10.80;48.30;;;;;;5031876;28;20500;-79
2022/03/25 02:55:50;;;;;;;28.02;14.18;;;10.90;48.20;;;;;;5032072;28;20370;-79
2022/03/25 02:58:17;;;;;;;22.17;13.45;;;10.80;48.10;;;;;;5043112;28;20021;-80
2022/03/25 03:00:42;;;;;;;23.58;13.18;;;10.80;48.20;;;;;;5043618;28;20550;-79
2022/03/25 03:03:08;;;;;;;27.17;13.48;;;10.80;48.20;;;;;;5012276;28;20025;-78
2022/03/25 03:05:35;;;;;;;31.13;14.30;;;10.80;48.10;;;;;;5024602;28;20116;-79
2022/03/25 03:08:01;;;;;;;25.13;13.90;;;10.80;48.00;;;;;;5031866;28;20033;-80
2022/03/25 03:10:27;;;;;;;22.02;12.50;;;10.80;47.90;;;;;;5031836;28;20026;-79
2022/03/25 03:12:53;;;;;;;20.67;12.65;;;10.80;48.00;;;;;;5031837;28;20381;-80
2022/03/25 03:15:20;;;;;;;25.30;14.73;;;10.80;48.20;;;;;;5031522;28;20116;-80
2022/03/25 03:17:46;;;;;;;23.73;12.23;;;10.80;48.00;;;;;;5031816;28;20061;-79
2022/03/25 03:20:14;;;;;;;24.90;12.35;;;10.80;48.00;;;;;;5014078;28;20018;-79
2022/03/25 03:22:41;;;;;;;26.77;13.00;;;10.80;48.10;;;;;;5031685;28;20477;-80
2022/03/25 03:25:07;;;;;;;23.33;13.43;;;10.70;48.20;;;;;;5031499;28;20438;-80
2022/03/25 03:27:33;;;;;;;24.85;13.57;;;10.70;48.20;;;;;;5031714;28;20436;-80
2022/03/25 03:29:59;;;;;;;25.60;13.57;;;10.70;48.20;;;;;;5031582;28;20033;-80
2022/03/25 03:32:28;;;;;;;25.42;12.45;;;10.50;48.40;;;;;;5031446;28;20034;-80
2022/03/25 03:34:55;;;;;;;25.40;12.60;;;10.50;49.50;;;;;;5013989;28;20461;-80
2022/03/25 03:37:21;;;;;;;23.67;13.48;;;10.50;48.80;;;;;;5031691;28;20026;-80
2022/03/25 03:39:47;;;;;;;23.02;12.65;;;10.40;48.80;;;;;;5033121;28;20029;-80
2022/03/25 03:42:14;;;;;;;18.67;11.27;;;10.40;48.50;;;;;;5051110;28;20055;-79
2022/03/25 03:44:40;;;;;;;23.40;12.43;;;10.40;48.30;;;;;;5051477;28;20392;-79
2022/03/25 03:47:07;;;;;;;25.38;11.40;;;10.50;48.00;;;;;;5051236;28;20075;-79
2022/03/25 03:49:34;;;;;;;24.08;11.40;;;10.50;47.90;;;;;;5051227;28;20060;-79
2022/03/25 03:51:59;;;;;;;19.38;12.05;;;10.60;47.80;;;;;;5051139;28;20127;-79
2022/03/25 03:54:25;;;;;;;24.75;10.88;;;10.50;48.50;;;;;;5051253;28;20512;-80
2022/03/25 03:56:51;;;;;;;25.27;10.93;;;10.50;47.80;;;;;;5053681;28;20104;-79
2022/03/25 03:59:17;;;;;;;21.80;11.48;;;10.50;47.50;;;;;;5055277;28;20476;-79
2022/03/25 04:01:42;;;;;;;18.88;11.07;;;10.60;47.50;;;;;;5055120;28;20017;-79
2022/03/25 04:04:08;;;;;;;17.65;11.00;;;10.50;47.50;;;;;;5055150;28;20147;-79
2022/03/25 04:06:34;;;;;;;22.23;11.40;;;10.50;47.30;;;;;;5055125;28;20457;-79
2022/03/25 04:08:59;;;;;;;21.10;11.63;;;10.50;47.10;;;;;;5036966;28;20029;-79
2022/03/25 04:11:25;;;;;;;19.52;10.65;;;10.50;47.10;;;;;;5054926;28;20025;-79
2022/03/25 04:13:51;;;;;;;17.50;10.93;;;10.50;47.10;;;;;;5055113;28;20021;-79
2022/03/25 04:16:17;;;;;;;18.13;10.18;;;10.50;47.00;;;;;;5054958;28;20473;-79
2022/03/25 04:18:43;;;;;;;17.92;10.30;;;10.50;47.00;;;;;;5054786;28;20583;-79
2022/03/25 04:21:08;;;;;;;15.70;9.55;;;10.40;47.20;;;;;;5054804;28;20393;-79
2022/03/25 04:23:34;;;;;;;16.58;9.77;;;10.40;47.10;;;;;;5054699;28;20048;-78
2022/03/25 04:26:00;;;;;;;18.27;10.15;;;10.30;47.30;;;;;;5036845;28;20115;-79
2022/03/25 04:28:25;;;;;;;18.38;10.95;;;10.30;47.50;;;;;;5054996;28;20111;-79
2022/03/25 04:30:51;;;;;;;14.90;10.07;;;10.30;47.40;;;;;;5054446;28;20543;-79
2022/03/25 04:33:17;;;;;;;16.42;10.63;;;10.20;47.50;;;;;;5036682;28;20032;-79
2022/03/25 04:35:43;;;;;;;20.65;10.07;;;10.20;47.60;;;;;;5054690;28;20072;-79
2022/03/25 04:38:09;;;;;;;17.92;9.65;;;10.10;47.70;;;;;;5054511;28;20177;-79
2022/03/25 04:40:34;;;;;;;12.73;8.43;;;10.10;47.70;;;;;;5036273;28;20091;-79
2022/03/25 04:43:01;;;;;;;19.42;9.85;;;10.10;47.70;;;;;;5054369;28;20060;-79
2022/03/25 04:45:29;;;;;;;20.27;10.77;;;10.00;47.50;;;;;;5054261;28;20033;-79
2022/03/25 04:47:55;;;;;;;17.45;10.07;;;10.00;47.80;;;;;;5054708;28;20071;-80
2022/03/25 04:50:21;;;;;;;16.10;8.98;;;10.00;48.00;;;;;;5054310;28;20074;-79
2022/03/25 04:52:48;;;;;;;16.67;9.57;;;9.90;48.30;;;;;;5036420;28;20063;-79
2022/03/25 04:55:14;;;;;;;15.57;9.80;;;9.90;48.10;;;;;;5036691;28;20041;-79
2022/03/25 04:57:41;;;;;;;14.52;9.05;;;9.90;47.90;;;;;;5039249;28;20028;-79
2022/03/25 05:00:10;;;;;;;17.00;10.23;;;9.90;47.90;;;;;;5036212;28;20032;-80
2022/03/25 05:02:36;;;;;;;17.67;9.35;;;9.90;47.90;;;;;;5054405;28;20032;-79
2022/03/25 05:05:03;;;;;;;15.57;9.02;;;9.90;47.80;;;;;;5054357;28;20369;-80
2022/03/25 05:07:29;;;;;;;16.65;9.07;;;9.80;47.90;;;;;;5053950;28;20107;-80
2022/03/25 05:10:00;;;;;;;14.10;9.20;;;9.80;48.00;;;;;;5054349;28;20651;-79
2022/03/25 05:12:30;;;;;;;20.07;10.00;;;9.70;48.20;;;;;;5036123;28;20091;-79
2022/03/25 05:14:56;;;;;;;17.17;8.85;;;9.70;48.30;;;;;;5053868;28;20032;-79
2022/03/25 05:17:21;;;;;;;16.58;9.45;;;9.70;48.50;;;;;;5053729;28;20043;-80
2022/03/25 05:19:48;;;;;;;18.17;9.93;;;9.70;48.50;;;;;;5053660;28;20029;-79
2022/03/25 05:22:14;;;;;;;22.73;9.93;;;9.70;48.40;;;;;;5054051;28;20033;-79
2022/03/25 05:24:40;;;;;;;19.08;9.90;;;9.70;48.60;;;;;;5036152;28;20041;-80
2022/03/25 05:27:06;;;;;;;19.27;9.68;;;9.70;48.60;;;;;;5055173;28;20035;-79
2022/03/25 05:29:32;;;;;;;18.77;10.88;;;9.70;48.60;;;;;;5054837;28;20025;-79
2022/03/25 05:31:58;;;;;;;23.63;10.23;;;9.70;48.80;;;;;;5054824;28;20025;-79
2022/03/25 05:34:23;;;;;;;19.60;10.40;;;9.70;48.80;;;;;;5054662;28;20035;-79
2022/03/25 05:36:49;;;;;;;20.05;11.05;;;9.70;48.90;;;;;;5054787;28;20033;-79
2022/03/25 05:39:15;;;;;;;19.58;10.25;;;9.70;48.90;;;;;;5055065;28;20104;-79
2022/03/25 05:41:42;;;;;;;18.45;10.70;;;9.70;48.90;;;;;;5035809;28;20057;-79
2022/03/25 05:44:08;;;;;;;18.73;10.05;;;9.70;49.00;;;;;;5053414;28;20036;-79
2022/03/25 05:46:34;;;;;;;25.90;11.27;;;9.70;49.00;;;;;;5053442;28;20033;-78
2022/03/25 05:49:01;;;;;;;22.33;10.50;;;9.70;49.10;;;;;;5034946;28;20433;-79
2022/03/25 05:51:27;;;;;;;23.50;10.38;;;9.70;49.00;;;;;;5052157;28;20096;-79
2022/03/25 05:53:52;;;;;;;23.40;11.40;;;9.70;49.00;;;;;;5052323;28;20104;-79
2022/03/25 05:56:19;;;;;;;20.02;10.35;;;9.70;49.00;;;;;;5034729;28;20083;-79
2022/03/25 05:58:45;;;;;;;19.23;11.38;;;9.70;49.40;;;;;;5052231;28;20025;-79
2022/03/25 06:01:11;;;;;;;20.83;10.90;;;9.70;49.60;;;;;;5053006;28;20075;-78
2022/03/25 06:03:37;;;;;;;21.05;10.70;;;9.70;49.70;;;;;;5035585;28;20051;-79
2022/03/25 06:06:06;;;;;;;20.10;10.90;;;9.70;49.80;;;;;;5053500;28;20516;-79
2022/03/25 06:08:32;;;;;;;23.50;12.82;;;9.70;49.90;;;;;;5053323;28;20399;-80
2022/03/25 06:10:59;;;;;;;21.80;11.75;;;9.80;49.90;;;;;;5053188;28;20029;-79
2022/03/25 06:13:29;;;;;;;19.73;10.93;;;9.90;49.80;;;;;;5052543;28;20048;-79
2022/03/25 06:15:55;;;;;;;22.98;12.20;;;9.90;49.80;;;;;;5052928;28;20503;-80
2022/03/25 06:18:22;;;;;;;24.33;12.07;;;9.90;49.90;;;;;;5033961;28;20025;-79
2022/03/25 06:20:47;;;;;;;26.23;12.65;;;9.90;50.20;;;;;;5034052;28;20078;-80
2022/03/25 06:23:13;;;;;;;19.42;10.63;;;10.00;50.20;;;;;;5034539;28;20033;-79
2022/03/25 06:25:40;;;;;;;25.08;11.80;;;10.00;50.10;;;;;;5052631;28;20029;-80
2022/03/25 06:28:07;;;;;;;20.65;11.63;;;10.10;50.80;;;;;;5052551;28;20029;-79
2022/03/25 06:30:36;;;;;;;26.23;11.77;;;10.10;50.60;;;;;;5049473;28;20056;-80
2022/03/25 06:33:04;;;;;;;37.42;13.65;;;10.10;50.60;;;;;;5032588;28;20472;-80
2022/03/25 06:35:30;;;;;;;29.67;13.80;;;10.20;51.10;;;;;;5032540;28;20542;-79
2022/03/25 06:37:56;;;;;;;28.48;12.50;;;10.20;51.30;;;;;;5032096;28;20026;-80
2022/03/25 06:40:23;;;;;;;28.27;13.05;;;10.30;51.80;;;;;;5030641;28;20056;-80
2022/03/25 06:42:50;;;;;;;29.75;12.95;;;10.30;51.50;;;;;;5030656;28;20021;-79
2022/03/25 06:45:18;;;;;;;25.77;13.40;;;10.40;50.50;;;;;;5030668;28;20025;-80
2022/03/25 06:47:44;;;;;;;21.40;12.18;;;10.50;50.70;;;;;;5030924;28;20086;-79
2022/03/25 06:50:13;;;;;;;27.98;12.85;;;10.50;50.90;;;;;;5013800;28;20036;-79
2022/03/25 06:52:39;;;;;;;39.13;13.65;;;10.50;51.00;;;;;;5029291;28;20436;-79
2022/03/25 06:55:05;;;;;;;34.03;13.00;;;10.50;51.50;;;;;;5034034;28;20484;-79
2022/03/25 06:57:31;;;;;;;30.95;12.73;;;10.60;52.10;;;;;;5052063;28;20389;-79
2022/03/25 06:59:57;;;;;;;29.95;12.55;;;10.70;51.80;;;;;;5051866;28;20025;-79
2022/03/25 07:02:23;;;;;;;29.95;12.85;;;10.70;51.50;;;;;;5050815;28;20036;-79
2022/03/25 07:04:50;;;;;;;30.58;13.48;;;10.80;51.70;;;;;;5051896;28;20029;-79
2022/03/25 07:07:19;;;;;;;35.88;13.48;;;10.80;51.70;;;;;;5034310;28;20036;-79
2022/03/25 07:09:45;;;;;;;26.45;12.65;;;10.90;52.00;;;;;;5052454;28;20029;-79
2022/03/25 07:12:12;;;;;;;26.20;13.77;;;10.90;52.10;;;;;;5052492;28;20508;-79
2022/03/25 07:14:38;;;;;;;25.23;13.63;;;11.00;52.10;;;;;;5052715;28;20025;-79
2022/03/25 07:17:04;;;;;;;30.65;13.70;;;11.00;52.10;;;;;;5052847;28;20538;-80
2022/03/25 07:19:30;;;;;;;29.00;13.75;;;11.10;51.70;;;;;;5052877;28;20079;-79
2022/03/25 07:21:56;;;;;;;33.75;15.52;;;11.10;51.50;;;;;;5052832;28;20025;-79
2022/03/25 07:24:21;;;;;;;31.25;15.05;;;11.20;51.60;;;;;;5035156;28;20539;-77
2022/03/25 07:26:47;;;;;;;28.50;14.95;;;11.20;51.20;;;;;;5052866;28;20029;-79
2022/03/25 07:29:14;;;;;;;31.90;15.55;;;11.30;50.40;;;;;;5052830;28;20040;-79
2022/03/25 07:31:40;;;;;;;39.22;16.02;;;11.30;50.40;;;;;;5052576;28;20103;-79
2022/03/25 07:34:06;;;;;;;26.42;14.07;;;11.30;50.60;;;;;;5052952;28;20021;-78
2022/03/25 07:36:33;;;;;;;32.10;16.15;;;11.40;50.80;;;;;;5052610;28;20067;-79
2022/03/25 07:38:58;;;;;;;36.70;16.63;;;11.40;49.90;;;;;;5052965;28;20021;-79
2022/03/25 07:41:24;;;;;;;44.25;15.77;;;11.50;49.30;;;;;;5052496;28;20144;-77
2022/03/25 07:43:52;;;;;;;30.08;15.23;;;11.60;49.80;;;;;;5053023;28;20033;-77
2022/03/25 07:46:18;;;;;;;38.80;16.67;;;11.60;50.00;;;;;;5052922;28;20031;-78
2022/03/25 07:48:44;;;;;;;39.78;18.70;;;11.60;50.30;;;;;;5052843;28;20021;-77
2022/03/25 07:51:10;;;;;;;40.00;17.83;;;11.70;49.90;;;;;;5052826;28;20021;-77
2022/03/25 07:53:36;;;;;;;37.70;17.67;;;11.70;49.70;;;;;;5052596;28;20031;-77
2022/03/25 07:56:02;;;;;;;32.55;17.30;;;11.70;50.80;;;;;;5052520;28;20017;-77
2022/03/25 07:58:28;;;;;;;37.92;17.98;;;11.80;50.00;;;;;;5052563;28;20051;-78
2022/03/25 08:00:54;;;;;;;33.67;17.40;;;11.80;49.60;;;;;;5028436;28;20049;-78
2022/03/25 08:03:21;;;;;;;38.40;18.10;;;12.00;49.90;;;;;;5032502;28;20651;-77
2022/03/25 08:05:48;;;;;;;34.38;17.73;;;12.00;49.90;;;;;;5031873;28;20033;-77
2022/03/25 08:08:16;;;;;;;41.60;18.98;;;12.10;48.70;;;;;;5013955;28;20117;-78
2022/03/25 08:10:42;;;;;;;40.03;17.75;;;12.20;48.10;;;;;;5031116;28;20509;-78
2022/03/25 08:13:09;;;;;;;36.53;18.20;;;12.20;48.60;;;;;;5031309;28;20065;-78
2022/03/25 08:15:36;;;;;;;41.33;18.60;;;12.30;49.90;;;;;;5031370;28;20077;-78
2022/03/25 08:18:01;;;;;;;35.70;18.20;;;12.40;49.70;;;;;;5032199;28;20476;-78
2022/03/25 08:20:35;;;;;;;34.33;18.02;;;12.50;51.40;;;;;;5032475;28;20072;-78
2022/03/25 08:23:02;;;;;;;36.92;17.95;;;12.50;51.30;;;;;;5014674;28;20080;-78
2022/03/25 08:28:17;;;;;;;36.30;17.55;;;12.60;50.40;;;;;;5032511;28;20068;-79
2022/03/25 08:30:44;;;;;;;34.97;17.02;;;12.70;50.50;;;;;;5036468;28;20572;-78
2022/03/25 08:33:11;;;;;;;35.55;18.02;;;12.80;50.50;;;;;;5052257;28;20025;-78
2022/03/25 08:35:38;;;;;;;36.60;18.13;;;12.90;49.90;;;;;;5052237;28;20021;-79
2022/03/25 08:38:04;;;;;;;38.38;19.45;;;13.00;49.70;;;;;;5052075;28;20104;-78
2022/03/25 08:40:32;;;;;;;37.42;18.40;;;13.00;50.50;;;;;;5044129;28;20045;-79
2022/03/25 08:42:58;;;;;;;36.53;19.00;;;13.10;51.50;;;;;;5034667;28;20029;-80
2022/03/25 08:45:25;;;;;;;37.08;17.80;;;13.10;50.80;;;;;;5035889;28;20014;-79
2022/03/25 08:47:51;;;;;;;36.10;18.08;;;13.20;50.60;;;;;;5018036;28;20112;-79
2022/03/25 08:50:17;;;;;;;36.90;17.50;;;13.20;50.70;;;;;;5052402;28;20051;-80
2022/03/25 08:52:45;;;;;;;33.95;18.08;;;13.40;50.70;;;;;;5055664;28;20037;-80
2022/03/25 08:55:13;;;;;;;37.58;17.35;;;13.40;50.40;;;;;;5037700;28;20099;-79
2022/03/25 08:57:40;;;;;;;35.28;17.20;;;13.60;50.20;;;;;;5055627;28;20021;-79
2022/03/25 09:00:12;;;;;;;45.92;19.63;;;13.50;49.80;;;;;;5055155;28;20029;-79
2022/03/25 09:02:39;;;;;;;38.35;19.88;;;13.60;49.80;;;;;;4997897;28;20074;-80
2022/03/25 09:05:06;;;;;;;41.47;19.30;;;13.60;50.00;;;;;;5015640;28;20030;-80
2022/03/25 09:07:32;;;;;;;45.90;20.17;;;13.50;50.00;;;;;;4997024;28;20052;-79
2022/03/25 09:09:57;;;;;;;39.60;19.52;;;13.80;49.70;;;;;;4997706;28;20482;-80
2022/03/25 09:12:23;;;;;;;42.88;19.65;;;13.90;49.80;;;;;;5015034;28;20038;-79
2022/03/25 09:14:50;;;;;;;36.17;18.45;;;14.00;47.80;;;;;;4997136;28;20022;-79
2022/03/25 09:17:17;;;;;;;38.42;19.15;;;14.30;48.30;;;;;;5014673;28;20482;-80
2022/03/25 09:19:43;;;;;;;40.42;19.17;;;14.40;45.50;;;;;;5014279;28;20022;-80
2022/03/25 09:22:10;;;;;;;33.30;18.33;;;14.40;44.50;;;;;;4996844;28;20025;-79
2022/03/25 09:24:35;;;;;;;31.70;17.83;;;14.40;43.90;;;;;;5017844;28;20025;-80
2022/03/25 09:27:02;;;;;;;33.70;18.65;;;14.40;44.90;;;;;;5034122;28;20033;-79
2022/03/25 09:29:28;;;;;;;32.83;18.42;;;14.50;43.40;;;;;;5034365;28;20389;-80
2022/03/25 09:31:54;;;;;;;36.47;17.95;;;14.70;43.80;;;;;;5034644;28;20037;-80
2022/03/25 09:37:04;;;;;;;29.85;16.67;;;14.80;44.20;;;;;;5034560;28;20032;-80
2022/03/25 09:39:30;;;;;;;36.22;16.83;;;15.00;42.60;;;;;;5034608;28;20100;-79
2022/03/25 09:41:57;;;;;;;29.80;15.48;;;15.00;42.10;;;;;;5053937;28;20099;-79
2022/03/25 09:44:23;;;;;;;36.15;17.00;;;15.00;42.40;;;;;;5053892;28;20028;-79
2022/03/25 09:46:50;;;;;;;31.95;17.25;;;15.00;43.90;;;;;;5053541;28;20117;-80
2022/03/25 09:49:17;;;;;;;30.48;17.42;;;15.00;44.20;;;;;;5035984;28;20028;-79
2022/03/25 09:51:44;;;;;;;39.08;19.30;;;15.00;44.60;;;;;;5054044;28;20032;-80
2022/03/25 09:54:13;;;;;;;34.50;18.52;;;15.20;42.80;;;;;;5053933;28;20036;-80
2022/03/25 09:56:40;;;;;;;32.55;17.15;;;15.20;43.10;;;;;;5054001;28;20036;-79
2022/03/25 09:59:07;;;;;;;38.55;18.90;;;15.00;42.70;;;;;;5053530;28;20017;-72
2022/03/25 10:01:34;;;;;;;41.83;19.88;;;15.10;43.40;;;;;;5042464;28;20025;-73
2022/03/25 10:04:00;;;;;;;32.72;19.17;;;15.10;43.60;;;;;;5033012;28;20029;-73
2022/03/25 10:06:26;;;;;;;39.30;19.15;;;15.10;45.30;;;;;;5015804;28;20084;-72
2022/03/25 10:09:01;;;;;;;34.85;19.05;;;15.40;46.40;;;;;;5032814;28;20065;-79
2022/03/25 10:11:31;;;;;;;44.38;19.88;;;15.40;44.50;;;;;;5013603;28;20388;-79
2022/03/25 10:14:23;;;;;;;38.85;21.52;;;15.40;45.10;;;;;;5013909;28;20021;-79
2022/03/25 10:16:53;;;;;;;37.95;21.15;;;15.50;45.00;;;;;;5032141;28;20029;-80
2022/03/25 10:19:19;;;;;;;42.78;21.25;;;15.50;45.70;;;;;;5014195;28;20092;-79
2022/03/25 10:22:01;;;;;;;44.95;20.95;;;15.50;46.20;;;;;;5031508;28;20476;-80
2022/03/25 10:24:43;;;;;;;50.80;22.70;;;15.50;46.20;;;;;;5031473;28;20022;-80
2022/03/25 10:27:10;;;;;;;46.75;24.13;;;15.70;46.20;;;;;;5032779;28;20448;-79
2022/03/25 10:29:36;;;;;;;40.90;21.70;;;15.90;45.00;;;;;;5014681;28;20022;-79
2022/03/25 10:32:04;;;;;;;45.97;21.58;;;15.90;45.30;;;;;;5046169;28;20462;-79
2022/03/25 10:34:29;;;;;;;46.10;22.88;;;16.10;45.60;;;;;;5053464;28;20464;-80
2022/03/25 10:37:01;;;;;;;43.47;22.38;;;16.10;44.20;;;;;;5053284;28;20017;-79
2022/03/25 10:39:28;;;;;;;42.63;22.38;;;16.10;44.50;;;;;;5053396;28;20017;-80
2022/03/25 10:41:58;;;;;;;40.25;22.13;;;16.10;43.20;;;;;;5053127;28;20037;-79
2022/03/25 10:44:41;;;;;;;48.95;21.10;;;16.30;44.20;;;;;;5052825;28;20029;-80
2022/03/25 10:47:16;;;;;;;44.33;22.75;;;16.70;45.10;;;;;;5050187;28;20036;-79
2022/03/25 10:49:46;;;;;;;45.92;23.27;;;16.80;44.80;;;;;;5050033;28;20029;-80
2022/03/25 10:52:34;;;;;;;47.53;23.80;;;17.10;44.70;;;;;;5036861;28;20108;-80
2022/03/25 10:55:21;;;;;;;47.72;24.52;;;17.10;44.80;;;;;;5070322;28;20480;-79
2022/03/25 10:57:58;;;;;;;45.60;23.52;;;17.20;43.70;;;;;;5052466;28;20028;-80
2022/03/25 11:00:25;;;;;;;48.20;23.00;;;17.30;43.70;;;;;;5069038;28;20116;-80
2022/03/25 11:02:52;;;;;;;45.15;22.95;;;17.40;44.00;;;;;;5051969;28;20029;-80
2022/03/25 11:05:18;;;;;;;44.17;23.77;;;17.40;42.30;;;;;;5050138;28;20096;-79
2022/03/25 11:07:45;;;;;;;47.95;23.00;;;17.30;43.20;;;;;;5051656;28;20489;-80
2022/03/25 11:10:17;;;;;;;40.35;22.45;;;17.30;43.10;;;;;;5051357;28;20025;-79
2022/03/25 11:12:51;;;;;;;39.72;21.45;;;17.40;42.70;;;;;;5033604;28;20029;-79
2022/03/25 11:15:18;;;;;;;41.95;21.27;;;17.40;42.60;;;;;;5051543;28;20107;-79
2022/03/25 11:17:45;;;;;;;42.03;22.55;;;17.50;40.30;;;;;;5033779;28;20075;-79
2022/03/25 11:20:13;;;;;;;38.75;21.35;;;17.60;41.30;;;;;;5051424;28;20040;-79
2022/03/25 11:22:48;;;;;;;48.05;23.23;;;17.60;41.30;;;;;;5030520;28;20043;-80
2022/03/25 11:25:18;;;;;;;38.15;20.05;;;17.70;43.10;;;;;;5046782;28;20029;-79
2022/03/25 11:27:54;;;;;;;42.35;21.10;;;17.80;42.00;;;;;;5047249;28;20036;-79
2022/03/25 11:30:20;;;;;;;37.05;20.50;;;17.80;42.10;;;;;;5046975;28;20031;-78
2022/03/25 11:33:04;;;;;;;44.53;20.35;;;17.90;42.20;;;;;;5047436;28;20040;-78
2022/03/25 11:35:34;;;;;;;39.90;20.48;;;18.10;42.30;;;;;;5029708;28;20032;-79
2022/03/25 11:38:12;;;;;;;37.22;20.15;;;18.10;41.10;;;;;;5047282;28;20017;-79
2022/03/25 11:40:44;;;;;;;44.60;21.85;;;18.10;40.40;;;;;;5047059;28;20469;-78
2022/03/25 11:43:18;;;;;;;40.88;20.85;;;18.10;40.00;;;;;;5029068;28;20056;-79
2022/03/25 11:45:46;;;;;;;41.58;20.85;;;18.10;39.60;;;;;;5045577;28;20032;-77
2022/03/25 11:48:11;;;;;;;37.92;20.20;;;18.20;40.30;;;;;;5046624;28;20100;-77
2022/03/25 11:50:42;;;;;;;46.25;21.52;;;18.30;40.00;;;;;;5028292;28;20180;-78
2022/03/25 11:53:10;;;;;;;38.42;21.20;;;18.40;39.60;;;;;;5046520;28;20031;-78
2022/03/25 11:56:02;;;;;;;37.85;20.23;;;18.40;39.00;;;;;;5046707;28;20021;-78
2022/03/25 11:58:30;;;;;;;36.83;19.27;;;18.50;39.60;;;;;;5024074;28;20032;-77
2022/03/25 12:01:22;;;;;;;35.60;19.45;;;18.60;38.00;;;;;;5046423;28;20136;-78
2022/03/25 12:03:55;;;;;;;34.53;19.30;;;18.70;40.10;;;;;;5027809;28;20021;-78
2022/03/25 12:06:23;;;;;;;40.78;19.05;;;18.80;38.70;;;;;;5045503;28;20395;-78
2022/03/25 12:09:06;;;;;;;36.60;21.10;;;18.80;37.30;;;;;;5027409;28;20024;-79
2022/03/25 12:11:56;;;;;;;38.10;20.98;;;18.90;37.90;;;;;;5039213;28;20562;-78
2022/03/25 12:14:31;;;;;;;39.25;20.15;;;18.90;37.00;;;;;;5043185;28;20601;-77
2022/03/25 12:17:12;;;;;;;31.60;18.88;;;19.00;36.90;;;;;;5042642;28;20590;-78
2022/03/25 12:19:44;;;;;;;34.22;19.60;;;19.10;35.20;;;;;;5047535;28;20083;-77
2022/03/25 12:22:22;;;;;;;29.35;17.20;;;19.10;35.20;;;;;;5044934;28;20063;-77
2022/03/25 12:24:56;;;;;;;28.48;17.58;;;19.30;35.90;;;;;;5049369;28;20033;-78
2022/03/25 12:27:23;;;;;;;33.78;17.05;;;19.40;33.90;;;;;;5049870;28;20116;-78
2022/03/25 12:29:54;;;;;;;32.10;17.05;;;19.40;34.10;;;;;;5050650;28;20079;-78
2022/03/25 12:32:22;;;;;;;29.10;17.20;;;19.40;33.80;;;;;;5050489;28;20325;-78
2022/03/25 12:35:09;;;;;;;28.10;15.98;;;19.50;34.50;;;;;;5049601;28;20029;-78
2022/03/25 12:37:35;;;;;;;29.02;15.82;;;19.50;33.40;;;;;;5032308;28;20543;-78